Time;durP1;ratioP1;P1;durP2;ratioP2;P2;SDS_P1;SDS_P2;PMS_P1;PMS_P2;Temp;Humidity;BMP_temperature;BMP_pressure;BME280_temperature;BME280_humidity;BME280_pressure;Samples;Min_cycle;Max_cycle;Signal;HPM_P1;HPM_P2
2023/03/29 00:00:45;;;;;;;26.00;6.30;;;;;;;0.11;55.67;99441.57;67569;1281;1016201;-61
2023/03/29 00:03:52;;;;;;;23.30;6.40;;;;;;;0.10;55.83;99442.45;67568;1281;1016430;-61
2023/03/29 00:06:55;;;;;;;24.40;6.60;;;;;;;0.10;55.62;99441.41;67626;1281;1016333;-61
2023/03/29 00:09:57;;;;;;;23.30;6.10;;;;;;;0.08;55.83;99441.42;67624;1281;1016043;-61
2023/03/29 00:13:00;;;;;;;23.60;6.10;;;;;;;0.08;55.84;99447.45;67578;1281;1018804;-61
2023/03/29 00:16:02;;;;;;;23.80;6.10;;;;;;;0.08;55.96;99442.98;67549;1281;1016437;-61
2023/03/29 00:19:04;;;;;;;22.20;5.50;;;;;;;0.08;56.04;99444.53;67572;1281;1016336;-61
2023/03/29 00:22:07;;;;;;;23.00;5.30;;;;;;;0.08;55.88;99444.36;67616;1281;1016436;-61
2023/03/29 00:25:09;;;;;;;24.00;5.70;;;;;;;0.05;56.05;99443.52;67604;1281;1016515;-61
2023/03/29 00:28:13;;;;;;;22.90;5.60;;;;;;;-0.03;56.30;99447.02;67569;1281;1016909;-61
2023/03/29 00:31:16;;;;;;;21.60;5.60;;;;;;;-0.08;56.49;99447.40;67587;1265;1016802;-61
2023/03/29 00:34:18;;;;;;;20.10;5.30;;;;;;;-0.14;56.65;99443.33;67582;1281;1016518;-61
2023/03/29 00:37:21;;;;;;;22.30;5.40;;;;;;;-0.13;56.55;99442.45;67574;1281;1018242;-61
2023/03/29 00:40:23;;;;;;;20.40;5.10;;;;;;;-0.10;56.53;99435.20;67632;1281;1016337;-61
2023/03/29 00:43:26;;;;;;;24.10;6.40;;;;;;;-0.10;56.26;99436.41;67572;1281;1020053;-61
2023/03/29 00:46:29;;;;;;;22.80;6.80;;;;;;;-0.07;56.24;99434.67;67612;1281;1016786;-61
2023/03/29 00:49:31;;;;;;;25.50;6.40;;;;;;;-0.09;56.19;99433.83;67616;1281;1016290;-62
2023/03/29 00:52:34;;;;;;;25.80;7.50;;;;;;;-0.11;56.20;99431.27;67612;1281;1015903;-61
2023/03/29 00:55:37;;;;;;;26.40;7.60;;;;;;;-0.11;56.21;99431.27;67559;1281;1016518;-61
2023/03/29 00:58:39;;;;;;;25.10;6.90;;;;;;;-0.09;56.00;99430.05;67581;1281;1016491;-61
2023/03/29 01:01:42;;;;;;;26.30;7.50;;;;;;;-0.03;55.85;99428.96;67609;1281;1016511;-61
2023/03/29 01:04:44;;;;;;;27.50;7.40;;;;;;;-0.08;56.08;99427.45;67615;1281;1016481;-61
2023/03/29 01:07:48;;;;;;;25.40;7.00;;;;;;;-0.18;56.25;99424.62;67557;1281;1016476;-61
2023/03/29 01:10:50;;;;;;;23.70;6.60;;;;;;;-0.17;56.33;99418.06;67594;1281;1016410;-61
2023/03/29 01:13:53;;;;;;;28.20;7.20;;;;;;;-0.18;56.33;99421.70;67557;1281;1016447;-61
2023/03/29 01:16:55;;;;;;;27.90;7.00;;;;;;;-0.22;56.38;99416.40;67575;1281;1016449;-60
2023/03/29 01:19:58;;;;;;;29.00;7.50;;;;;;;-0.30;56.48;99417.99;65257;1281;5370896;-61
2023/03/29 01:23:00;;;;;;;23.60;6.50;;;;;;;-0.34;56.53;99416.99;67615;1281;1016247;-60
2023/03/29 01:26:02;;;;;;;24.50;6.80;;;;;;;-0.41;56.83;99417.73;67607;1281;1016740;-60
2023/03/29 01:29:05;;;;;;;26.10;6.50;;;;;;;-0.40;56.69;99414.30;67551;1281;1016106;-61
2023/03/29 01:32:08;;;;;;;27.70;6.30;;;;;;;-0.41;56.74;99412.58;67614;1281;1018945;-61
2023/03/29 01:35:11;;;;;;;;;;;;;;;-0.39;56.62;99412.04;67625;1281;1016164;-61
2023/03/29 01:38:14;;;;;;;25.80;6.00;;;;;;;-0.45;56.83;99410.89;67551;1281;1016492;-61
2023/03/29 01:41:16;;;;;;;26.20;6.70;;;;;;;-0.47;56.73;99409.19;67612;1281;1016315;-61
2023/03/29 01:44:19;;;;;;;25.90;7.10;;;;;;;-0.49;56.66;99405.75;67602;1281;1016335;-61
2023/03/29 01:47:21;;;;;;;27.80;7.30;;;;;;;-0.51;56.52;99402.84;67565;1281;1015926;-61
2023/03/29 01:50:24;;;;;;;;;;;;;;;-0.48;56.37;99404.04;67620;1281;1016101;-60
2023/03/29 01:53:27;;;;;;;;;;;;;;;-0.52;56.48;99401.30;67626;1281;1018627;-61
2023/03/29 01:56:29;;;;;;;25.50;7.40;;;;;;;-0.55;56.48;99401.84;67561;1281;1016421;-61
2023/03/29 01:59:32;;;;;;;23.70;6.60;;;;;;;-0.62;56.45;99402.58;67596;1281;1018472;-61
2023/03/29 02:02:34;;;;;;;24.30;7.30;;;;;;;-0.72;56.78;99398.69;67611;1281;1016330;-61
2023/03/29 02:05:37;;;;;;;;;;;;;;;-0.63;56.57;99397.59;67565;1281;1016356;-61
2023/03/29 02:08:39;;;;;;;24.80;7.30;;;;;;;-0.63;56.57;99399.16;67589;1281;1016538;-61
2023/03/29 02:11:42;;;;;;;29.90;7.60;;;;;;;-0.63;56.43;99397.95;67592;1281;1016500;-61
2023/03/29 02:14:44;;;;;;;28.10;7.70;;;;;;;-0.67;56.54;99401.94;67599;1281;1016365;-62
2023/03/29 02:17:46;;;;;;;24.50;7.40;;;;;;;-0.62;56.69;99397.42;67625;1281;1018518;-61
2023/03/29 02:20:49;;;;;;;30.90;8.00;;;;;;;-0.60;56.15;99400.67;67559;1281;1016276;-61
2023/03/29 02:23:53;;;;;;;29.20;7.50;;;;;;;-0.69;56.03;99403.48;67602;1281;1016156;-61
2023/03/29 02:26:56;;;;;;;29.20;8.50;;;;;;;-0.72;56.34;99407.28;67582;1281;1016495;-61
2023/03/29 02:29:58;;;;;;;30.80;9.30;;;;;;;-0.72;56.42;99406.75;67627;1281;1017552;-61
2023/03/29 02:33:00;;;;;;;31.20;9.50;;;;;;;-0.69;56.45;99407.77;67624;1281;1016484;-61
2023/03/29 02:36:03;;;;;;;29.70;9.20;;;;;;;-0.74;56.53;99413.14;67581;1281;1017849;-60
2023/03/29 02:39:06;;;;;;;32.30;9.30;;;;;;;-0.68;56.31;99417.21;67589;1281;1016470;-61
2023/03/29 02:42:09;;;;;;;32.00;10.50;;;;;;;-0.65;56.40;99413.92;67577;1281;1017750;-61
2023/03/29 02:45:11;;;;;;;35.10;10.50;;;;;;;-0.59;56.45;99413.39;67595;1281;1017955;-61
2023/03/29 02:48:15;;;;;;;37.00;11.00;;;;;;;-0.56;56.19;99411.48;67590;1281;1016324;-60
2023/03/29 02:51:17;;;;;;;30.10;10.40;;;;;;;-0.51;56.40;99417.45;67590;1281;1016178;-61
2023/03/29 02:54:19;;;;;;;33.60;10.10;;;;;;;-0.41;55.94;99418.25;67544;1281;1016365;-61
2023/03/29 02:57:25;;;;;;;33.00;10.30;;;;;;;-0.46;56.10;99419.31;67603;1281;1016458;-61
2023/03/29 03:00:27;;;;;;;31.70;9.80;;;;;;;-0.47;56.26;99421.21;67550;1281;1016157;-61
2023/03/29 03:03:30;;;;;;;31.10;10.50;;;;;;;-0.46;55.95;99419.48;67557;1281;1016562;-61
2023/03/29 03:06:32;;;;;;;34.20;9.90;;;;;;;-0.53;55.98;99416.44;67616;1281;1016478;-61
2023/03/29 03:09:35;;;;;;;32.80;10.00;;;;;;;-0.53;55.86;99417.83;67564;1281;1015838;-61
2023/03/29 03:12:38;;;;;;;32.50;10.90;;;;;;;-0.64;55.60;99416.86;67592;1281;1016631;-61
2023/03/29 03:15:41;;;;;;;;;;;;;;;-0.73;55.88;99415.70;67631;1281;1016512;-61
2023/03/29 03:18:44;;;;;;;31.00;9.20;;;;;;;-0.72;55.89;99419.98;67594;1281;1016920;-61
2023/03/29 03:21:47;;;;;;;34.80;11.50;;;;;;;-0.76;55.69;99422.75;67625;1281;1015995;-61
2023/03/29 03:24:49;;;;;;;38.40;13.20;;;;;;;-0.71;55.67;99422.39;67623;1281;1016224;-61
2023/03/29 03:27:52;;;;;;;50.10;19.90;;;;;;;-0.64;55.48;99423.05;67576;1281;1016482;-61
2023/03/29 03:30:54;;;;;;;52.70;22.50;;;;;;;-0.65;55.44;99421.50;67567;1281;1016977;-61
2023/03/29 03:33:56;;;;;;;46.00;18.60;;;;;;;-0.74;55.43;99428.23;67600;1281;1016316;-61
2023/03/29 03:37:00;;;;;;;;;;;;;;;-0.87;55.48;99428.65;67617;1281;1016363;-61
2023/03/29 03:40:07;;;;;;;35.10;10.20;;;;;;;-1.00;55.78;99429.23;67608;1281;1018665;-61
2023/03/29 03:43:10;;;;;;;30.80;9.50;;;;;;;-1.02;55.93;99433.36;67589;1281;1016214;-61
2023/03/29 03:46:12;;;;;;;28.40;7.90;;;;;;;-1.05;55.99;99438.35;67587;1281;1019374;-61
2023/03/29 03:49:15;;;;;;;28.60;8.10;;;;;;;-0.98;56.12;99439.34;67603;1281;1016609;-60
2023/03/29 03:52:17;;;;;;;28.90;9.40;;;;;;;-1.02;56.08;99436.27;67616;1281;1015976;-60
2023/03/29 03:55:20;;;;;;;28.30;8.30;;;;;;;-1.04;56.07;99435.60;67589;1281;1016407;-61
2023/03/29 03:58:23;;;;;;;29.60;7.90;;;;;;;-1.08;55.91;99431.32;67652;1281;1016277;-62
2023/03/29 04:01:26;;;;;;;30.30;8.60;;;;;;;-1.12;55.75;99438.89;67640;1281;1016477;-61
2023/03/29 04:04:28;;;;;;;26.00;7.50;;;;;;;-1.19;55.73;99444.06;67572;1281;1016442;-60
2023/03/29 04:07:31;;;;;;;32.10;8.40;;;;;;;-1.25;56.24;99442.02;67571;1281;1018229;-60
2023/03/29 04:10:34;;;;;;;29.40;8.70;;;;;;;-1.09;55.92;99447.63;67636;1281;1016452;-59
2023/03/29 04:13:36;;;;;;;27.50;8.00;;;;;;;-1.11;55.97;99451.06;67590;1281;1016322;-60
2023/03/29 04:16:39;;;;;;;30.50;8.70;;;;;;;-1.11;55.93;99451.92;67593;1281;1018579;-60
2023/03/29 04:19:41;;;;;;;33.40;8.80;;;;;;;-1.08;55.89;99451.23;67631;1281;1016230;-60
2023/03/29 04:22:44;;;;;;;34.70;9.10;;;;;;;-1.11;55.73;99446.61;67632;1281;1016997;-62
2023/03/29 04:25:46;;;;;;;;;;;;;;;-1.20;55.75;99442.34;67607;1281;1016443;-59
2023/03/29 04:28:48;;;;;;;57.50;26.30;;;;;;;-1.22;55.84;99446.30;67587;1281;1016298;-60
2023/03/29 04:31:51;;;;;;;41.80;18.70;;;;;;;-1.20;55.63;99444.41;67566;1281;1016471;-59
2023/03/29 04:34:53;;;;;;;35.60;12.70;;;;;;;-1.17;55.76;99444.06;67580;1281;1016463;-60
2023/03/29 04:37:56;;;;;;;38.80;11.60;;;;;;;-0.98;55.54;99447.76;67646;1281;1017852;-59
2023/03/29 04:40:58;;;;;;;38.40;11.30;;;;;;;-0.91;55.38;99446.17;67632;1281;1016478;-61
2023/03/29 04:44:01;;;;;;;32.30;10.90;;;;;;;-0.98;55.33;99446.91;67590;1281;1016859;-61
2023/03/29 04:47:04;;;;;;;41.00;12.80;;;;;;;-1.09;55.33;99446.44;67613;1281;1016343;-59
2023/03/29 04:50:06;;;;;;;;;;;;;;;-1.11;55.40;99447.13;67660;1281;1018734;-60
2023/03/29 04:53:09;;;;;;;46.80;13.30;;;;;;;-1.13;55.41;99451.43;67575;1281;1016417;-60
2023/03/29 04:56:12;;;;;;;44.10;15.10;;;;;;;-1.06;55.78;99452.25;67591;1281;1017305;-60
2023/03/29 04:59:14;;;;;;;47.70;16.20;;;;;;;-0.87;56.00;99451.66;67613;1281;1016455;-59
2023/03/29 05:02:17;;;;;;;42.20;13.80;;;;;;;-0.58;55.76;99447.55;67610;1281;1016470;-59
2023/03/29 05:05:19;;;;;;;50.40;15.10;;;;;;;-0.19;55.50;99451.27;67609;1281;1016464;-60
2023/03/29 05:08:22;;;;;;;44.90;14.60;;;;;;;-0.02;55.06;99452.02;67644;1281;1016467;-59
2023/03/29 05:11:26;;;;;;;47.30;14.40;;;;;;;0.07;54.71;99452.09;67594;1281;1016488;-60
2023/03/29 05:14:28;;;;;;;42.60;14.80;;;;;;;0.06;54.57;99454.34;67613;1281;1016442;-59
2023/03/29 05:17:31;;;;;;;47.00;14.50;;;;;;;0.12;54.74;99455.66;67613;1281;1016165;-60
2023/03/29 05:20:33;;;;;;;;;;;;;;;0.29;55.05;99457.42;67600;1281;1016635;-59
2023/03/29 05:23:37;;;;;;;40.70;9.80;;;;;;;0.45;55.01;99451.75;67578;1281;1016918;-60
2023/03/29 05:26:39;;;;;;;32.20;8.60;;;;;;;0.51;54.23;99453.25;67626;1281;1016390;-60
2023/03/29 05:29:43;;;;;;;35.00;9.60;;;;;;;0.43;54.42;99454.71;67590;1281;1015901;-60
2023/03/29 05:32:45;;;;;;;34.00;11.00;;;;;;;0.41;54.11;99451.45;67580;1281;1016619;-59
2023/03/29 05:35:48;;;;;;;32.80;9.30;;;;;;;0.39;54.46;99451.64;67583;1281;1016127;-59
2023/03/29 05:38:50;;;;;;;29.40;9.10;;;;;;;0.42;54.17;99454.89;67561;1281;1017595;-60
2023/03/29 05:41:53;;;;;;;29.80;8.70;;;;;;;0.48;54.12;99453.10;67638;1281;1016399;-59
2023/03/29 05:44:56;;;;;;;33.90;9.40;;;;;;;0.47;54.09;99458.45;67583;1281;1016282;-59
2023/03/29 05:47:58;;;;;;;31.20;9.40;;;;;;;0.55;53.77;99456.83;67598;1281;1016258;-60
2023/03/29 05:51:02;;;;;;;41.90;10.20;;;;;;;0.61;53.74;99457.97;67640;1281;1016159;-60
2023/03/29 05:54:04;;;;;;;32.20;9.90;;;;;;;0.73;53.31;99456.64;67585;1281;1016382;-60
2023/03/29 05:57:07;;;;;;;30.70;10.00;;;;;;;0.75;53.13;99452.84;67623;1281;1016420;-60
2023/03/29 06:00:16;;;;;;;;;;;;;;;0.87;52.77;99454.58;67631;1281;1016076;-60
2023/03/29 06:03:19;;;;;;;32.80;9.20;;;;;;;0.87;52.94;99451.30;67668;1281;1016784;-59
2023/03/29 06:06:21;;;;;;;27.70;7.90;;;;;;;1.08;53.12;99447.98;67651;1281;1016315;-59
2023/03/29 06:09:24;;;;;;;28.80;7.70;;;;;;;1.21;52.05;99451.59;67634;1281;1016857;-59
2023/03/29 06:12:27;;;;;;;24.60;7.60;;;;;;;1.37;51.99;99447.08;67583;1281;1016471;-59
2023/03/29 06:15:29;;;;;;;27.50;8.20;;;;;;;1.44;52.10;99450.08;67612;1281;1016089;-60
2023/03/29 06:18:31;;;;;;;26.80;8.20;;;;;;;1.61;51.54;99451.05;67607;1281;1015876;-60
2023/03/29 06:21:34;;;;;;;24.50;7.70;;;;;;;1.84;51.16;99449.49;67645;1281;1015713;-59
2023/03/29 06:24:36;;;;;;;25.50;8.30;;;;;;;2.04;50.75;99444.52;67581;1281;1016266;-60
2023/03/29 06:27:39;;;;;;;25.80;8.00;;;;;;;2.38;50.62;99444.29;67549;1281;1018775;-60
2023/03/29 06:30:42;;;;;;;24.80;7.50;;;;;;;2.58;50.00;99444.30;67612;1281;1016486;-60
2023/03/29 06:33:45;;;;;;;26.30;7.90;;;;;;;2.84;49.48;99441.73;67599;1281;1016222;-60
2023/03/29 06:36:49;;;;;;;24.80;7.20;;;;;;;3.18;49.42;99437.58;67634;1281;1018011;-60
2023/03/29 06:39:52;;;;;;;25.40;7.40;;;;;;;3.46;48.74;99437.85;67652;1281;1016631;-59
2023/03/29 06:42:56;;;;;;;24.90;7.00;;;;;;;3.70;48.74;99436.80;67575;1281;1016444;-59
2023/03/29 06:45:59;;;;;;;25.30;7.20;;;;;;;3.93;48.39;99444.21;67567;1281;1016419;-60
2023/03/29 06:49:01;;;;;;;24.10;6.40;;;;;;;4.15;47.52;99443.48;68300;1281;1015283;-60
2023/03/29 06:52:04;;;;;;;22.40;6.60;;;;;;;4.26;47.01;99447.92;68312;1281;1014880;-61
2023/03/29 06:55:06;;;;;;;23.80;5.90;;;;;;;4.31;46.38;99445.53;68329;1281;1014901;-61
2023/03/29 06:58:09;;;;;;;;;;;;;;;4.37;47.69;99442.08;68333;1281;1015894;-60
2023/03/29 07:01:12;;;;;;;;;;;;;;;4.55;46.62;99442.33;68338;1281;1015658;-61
2023/03/29 07:04:16;;;;;;;21.10;5.70;;;;;;;4.76;45.93;99436.90;68331;1281;1015398;-61
2023/03/29 07:07:23;;;;;;;21.30;5.60;;;;;;;4.94;45.72;99436.92;68321;1281;1015311;-61
2023/03/29 07:10:26;;;;;;;20.90;5.70;;;;;;;4.72;43.72;99444.80;68327;1281;1016092;-60
2023/03/29 07:13:29;;;;;;;22.90;5.90;;;;;;;4.71;44.15;99446.89;68337;1281;1015355;-61
2023/03/29 07:16:32;;;;;;;23.00;6.20;;;;;;;4.73;42.65;99447.02;68326;1281;1016102;-60
2023/03/29 07:19:34;;;;;;;21.60;5.80;;;;;;;5.02;45.09;99442.23;68324;1281;1015329;-60
2023/03/29 07:22:37;;;;;;;25.70;5.60;;;;;;;5.19;43.45;99445.94;68327;1281;1015840;-60
2023/03/29 07:25:39;;;;;;;21.50;5.00;;;;;;;5.13;42.96;99449.56;68349;1281;1015263;-61
2023/03/29 07:28:43;;;;;;;20.40;4.90;;;;;;;5.12;41.07;99448.20;68287;1283;1015612;-61
2023/03/29 07:31:45;;;;;;;21.10;5.50;;;;;;;5.00;40.54;99453.06;68282;1283;1015715;-61
2023/03/29 07:34:48;;;;;;;22.90;6.00;;;;;;;5.12;41.02;99448.58;68301;1283;1016589;-60
2023/03/29 07:37:50;;;;;;;19.20;5.00;;;;;;;5.43;42.02;99438.63;68295;1283;1015254;-61
2023/03/29 07:40:53;;;;;;;20.10;5.40;;;;;;;5.57;38.73;99440.27;68300;1283;1015541;-61
2023/03/29 07:43:56;;;;;;;19.20;4.70;;;;;;;5.69;41.40;99435.23;68299;1283;1015656;-61
2023/03/29 07:46:59;;;;;;;18.90;5.10;;;;;;;5.60;38.26;99439.17;68290;1283;1016419;-61
2023/03/29 07:50:03;;;;;;;21.60;5.40;;;;;;;5.63;39.34;99438.04;68296;1283;1014571;-61
2023/03/29 07:53:06;;;;;;;19.20;5.30;;;;;;;5.61;38.19;99439.66;68302;1283;1015470;-61
2023/03/29 07:56:08;;;;;;;20.20;5.20;;;;;;;5.75;39.04;99438.34;68315;1283;1014670;-61
2023/03/29 07:59:11;;;;;;;;;;;;;;;5.94;37.96;99434.79;68303;1283;1016171;-60
2023/03/29 08:02:14;;;;;;;21.30;4.70;;;;;;;6.14;39.02;99432.62;68300;1283;1015709;-61
2023/03/29 08:05:16;;;;;;;17.30;4.50;;;;;;;6.37;37.14;99434.82;68294;1283;1016188;-60
2023/03/29 08:08:19;;;;;;;18.50;4.20;;;;;;;6.58;37.75;99425.40;68285;1283;1015606;-61
2023/03/29 08:11:23;;;;;;;17.50;4.00;;;;;;;6.70;34.99;99434.53;68296;1283;1015583;-60
2023/03/29 08:14:27;;;;;;;20.00;4.60;;;;;;;6.83;36.10;99426.76;68292;1283;1016377;-60
2023/03/29 08:17:29;;;;;;;14.60;3.90;;;;;;;7.26;36.23;99422.58;68295;1283;1015425;-61
2023/03/29 08:20:32;;;;;;;18.90;4.20;;;;;;;7.35;36.03;99417.38;68296;1283;1015551;-60
2023/03/29 08:23:34;;;;;;;16.20;4.10;;;;;;;7.56;34.80;99413.44;68304;1283;1015467;-61
2023/03/29 08:26:38;;;;;;;;;;;;;;;7.69;34.67;99408.08;68302;1283;1015343;-60
2023/03/29 08:29:41;;;;;;;16.90;4.00;;;;;;;7.74;34.91;99403.67;68284;1283;1016096;-61
2023/03/29 08:32:43;;;;;;;12.90;3.10;;;;;;;7.97;33.93;99406.58;68270;1283;1016034;-61
2023/03/29 08:35:45;;;;;;;17.40;4.20;;;;;;;8.21;34.24;99401.08;68297;1283;1016077;-61
2023/03/29 08:38:49;;;;;;;17.50;3.60;;;;;;;8.48;34.53;99397.83;68299;1283;1015712;-61
2023/03/29 08:41:52;;;;;;;14.70;3.30;;;;;;;8.25;32.88;99399.86;68282;1283;1016017;-60
2023/03/29 08:44:54;;;;;;;13.80;3.30;;;;;;;8.45;33.12;99398.16;68304;1283;1015618;-61
2023/03/29 08:47:57;;;;;;;13.50;3.50;;;;;;;8.51;33.93;99391.28;68289;1283;1015820;-61
2023/03/29 08:50:59;;;;;;;10.70;2.90;;;;;;;8.72;33.79;99397.89;68286;1283;1015678;-61
2023/03/29 08:54:01;;;;;;;14.10;2.80;;;;;;;8.60;31.57;99395.09;68288;1282;1016048;-61
2023/03/29 08:57:05;;;;;;;12.30;2.90;;;;;;;8.51;31.61;99401.92;68292;1283;1016293;-61
2023/03/29 09:00:09;;;;;;;16.00;3.60;;;;;;;8.66;32.96;99392.21;68283;1283;1015329;-61
2023/03/29 09:03:11;;;;;;;13.60;3.00;;;;;;;8.58;30.96;99392.57;68283;1283;1015571;-61
2023/03/29 09:06:16;;;;;;;11.80;3.50;;;;;;;8.66;32.96;99385.38;68273;1283;1016304;-61
2023/03/29 09:09:18;;;;;;;10.50;2.30;;;;;;;9.08;33.90;99380.73;68293;1283;1015587;-61
2023/03/29 09:12:21;;;;;;;11.50;2.60;;;;;;;9.18;31.18;99383.77;68279;1283;1016117;-61
2023/03/29 09:15:23;;;;;;;;;;;;;;;9.17;32.33;99378.73;68296;1283;1015444;-61
2023/03/29 09:18:26;;;;;;;10.70;2.70;;;;;;;9.15;31.14;99381.45;68289;1283;1015882;-61
2023/03/29 09:21:28;;;;;;;8.60;2.60;;;;;;;9.56;34.07;99368.74;68296;1283;1015931;-61
2023/03/29 09:24:31;;;;;;;9.70;2.50;;;;;;;10.20;33.12;99368.70;68302;1283;1016067;-61
2023/03/29 09:27:33;;;;;;;7.20;2.30;;;;;;;9.91;30.44;99371.73;68290;1260;1015532;-61
2023/03/29 09:30:36;;;;;;;8.10;2.40;;;;;;;9.65;30.10;99366.56;68296;1283;1015288;-61
2023/03/29 09:33:41;;;;;;;12.90;2.80;;;;;;;9.57;30.76;99358.04;68290;1283;1015582;-61
2023/03/29 09:36:44;;;;;;;9.80;2.20;;;;;;;9.60;29.49;99362.75;68294;1283;1015944;-61
2023/03/29 09:39:46;;;;;;;10.60;3.00;;;;;;;9.92;30.87;99348.27;68289;1283;1015697;-61
2023/03/29 09:42:48;;;;;;;8.60;2.40;;;;;;;10.03;29.79;99360.66;68292;1283;1015563;-61
2023/03/29 09:45:51;;;;;;;6.10;1.90;;;;;;;9.95;29.65;99356.89;68302;1283;1015577;-61
2023/03/29 09:48:53;;;;;;;6.60;2.30;;;;;;;9.70;28.73;99350.73;68293;1283;1015217;-61
2023/03/29 09:51:56;;;;;;;8.00;2.40;;;;;;;9.87;30.75;99341.72;68290;1283;1015268;-61
2023/03/29 09:54:58;;;;;;;8.30;2.30;;;;;;;10.21;30.41;99337.92;68304;1283;1015835;-61
2023/03/29 09:58:01;;;;;;;7.40;2.20;;;;;;;10.28;27.20;99342.61;68303;1283;1016028;-61
2023/03/29 10:01:04;;;;;;;7.30;2.10;;;;;;;9.85;27.41;99344.05;68290;1283;1015618;-61
2023/03/29 10:04:06;;;;;;;10.40;2.40;;;;;;;9.82;28.51;99341.95;68303;1283;1014684;-61
2023/03/29 10:07:09;;;;;;;8.60;2.00;;;;;;;10.01;27.34;99339.09;68292;1283;1015228;-61
2023/03/29 10:10:11;;;;;;;6.40;2.00;;;;;;;10.17;28.35;99331.30;68305;1283;1016314;-61
2023/03/29 10:13:13;;;;;;;11.90;2.40;;;;;;;10.23;27.76;99327.85;68296;1283;1016152;-61
2023/03/29 10:16:17;;;;;;;10.50;2.40;;;;;;;10.52;28.48;99332.34;68285;1283;1016509;-61
2023/03/29 10:19:19;;;;;;;9.70;2.40;;;;;;;10.50;27.45;99324.71;68294;1283;1014953;-61
2023/03/29 10:22:21;;;;;;;10.70;2.50;;;;;;;10.76;29.21;99317.71;68305;1283;1015448;-61
2023/03/29 10:25:24;;;;;;;6.80;2.20;;;;;;;11.36;29.29;99315.90;68288;1283;1016204;-61
2023/03/29 10:28:27;;;;;;;7.10;2.30;;;;;;;11.58;29.07;99315.16;68299;1260;1015234;-61
2023/03/29 10:31:30;;;;;;;12.20;2.80;;;;;;;11.81;25.82;99327.15;68293;1283;1015936;-61
2023/03/29 10:34:32;;;;;;;10.70;2.80;;;;;;;11.43;27.00;99321.98;68296;1283;1016219;-61
2023/03/29 10:37:35;;;;;;;10.20;2.80;;;;;;;11.44;27.39;99320.51;68286;1283;1016251;-61
2023/03/29 10:40:38;;;;;;;12.60;3.20;;;;;;;11.63;27.63;99313.45;68288;1283;1016171;-61
2023/03/29 10:43:41;;;;;;;12.10;3.30;;;;;;;11.80;28.88;99304.27;68308;1283;1015471;-61
2023/03/29 10:46:43;;;;;;;10.10;3.00;;;;;;;11.87;27.23;99320.85;68292;1283;1015329;-61
2023/03/29 10:49:46;;;;;;;12.00;3.40;;;;;;;11.44;26.58;99314.73;68294;1283;1016129;-62
2023/03/29 10:52:49;;;;;;;11.30;3.20;;;;;;;11.41;26.23;99310.55;68291;1283;1015872;-61
2023/03/29 10:55:51;;;;;;;12.90;3.40;;;;;;;11.49;27.18;99314.80;68300;1283;1015580;-61
2023/03/29 10:58:54;;;;;;;10.50;3.00;;;;;;;11.89;27.71;99307.27;68300;1260;1015991;-62
2023/03/29 11:01:56;;;;;;;15.80;3.70;;;;;;;12.28;29.31;99299.52;68301;1283;1015689;-61
2023/03/29 11:04:59;;;;;;;14.70;3.50;;;;;;;12.66;27.65;99291.39;68294;1283;1015578;-61
2023/03/29 11:08:01;;;;;;;14.40;3.70;;;;;;;12.30;26.57;99303.80;68285;1283;1015586;-61
2023/03/29 11:11:03;;;;;;;15.70;4.00;;;;;;;11.85;26.62;99302.08;68286;1283;1015715;-61
2023/03/29 11:14:06;;;;;;;13.30;3.30;;;;;;;12.02;27.98;99284.77;68293;1283;1015597;-62
2023/03/29 11:17:08;;;;;;;;;;;;;;;12.54;27.70;99279.36;68282;1283;1015747;-62
2023/03/29 11:20:11;;;;;;;10.60;3.30;;;;;;;12.58;25.91;99288.61;68286;1283;1016148;-61
2023/03/29 11:23:15;;;;;;;11.50;3.00;;;;;;;12.27;27.18;99280.83;68292;1281;1015207;-61
2023/03/29 11:26:17;;;;;;;15.40;3.40;;;;;;;12.33;26.52;99281.66;68306;1283;1016071;-61
2023/03/29 11:29:20;;;;;;;12.50;3.40;;;;;;;12.18;26.39;99274.73;68302;1283;1015406;-61
2023/03/29 11:32:23;;;;;;;13.10;3.50;;;;;;;12.48;27.02;99271.14;68288;1283;1015585;-61
2023/03/29 11:35:26;;;;;;;10.20;3.10;;;;;;;12.52;27.59;99257.36;68285;1283;1015984;-61
2023/03/29 11:38:28;;;;;;;12.50;2.90;;;;;;;13.03;28.40;99255.20;68294;1283;1015430;-61
2023/03/29 11:41:30;;;;;;;9.40;2.50;;;;;;;13.49;27.44;99249.30;68286;1283;1016126;-61
2023/03/29 11:44:33;;;;;;;11.40;2.90;;;;;;;13.37;25.30;99248.30;68302;1283;1016108;-61
2023/03/29 11:47:36;;;;;;;12.40;3.30;;;;;;;13.52;27.49;99243.46;68310;1283;1015234;-61
2023/03/29 11:50:38;;;;;;;10.70;3.00;;;;;;;13.99;26.24;99246.64;68288;1283;1014696;-61
2023/03/29 11:53:40;;;;;;;12.60;3.40;;;;;;;14.00;26.48;99246.78;68279;1283;1016078;-61
2023/03/29 11:56:43;;;;;;;11.40;3.00;;;;;;;13.86;24.85;99252.46;68300;1283;1015644;-61
2023/03/29 11:59:45;;;;;;;11.00;3.10;;;;;;;13.10;24.97;99246.52;68292;1283;1014840;-61
2023/03/29 12:02:48;;;;;;;10.80;2.80;;;;;;;13.25;25.23;99236.59;68297;1283;1016098;-61
2023/03/29 12:05:50;;;;;;;12.80;3.20;;;;;;;13.64;26.99;99229.88;68299;1283;1015846;-61
2023/03/29 12:08:53;;;;;;;13.30;3.20;;;;;;;14.30;26.51;99216.92;68310;1283;1015705;-61
2023/03/29 12:11:55;;;;;;;11.20;3.20;;;;;;;13.75;23.69;99234.95;68301;1261;1015972;-61
2023/03/29 12:14:58;;;;;;;13.10;3.40;;;;;;;13.37;24.66;99226.85;68294;1283;1015367;-61
2023/03/29 12:18:00;;;;;;;13.70;3.40;;;;;;;13.33;25.08;99225.74;68290;1283;1016241;-61
2023/03/29 12:21:03;;;;;;;14.80;4.00;;;;;;;13.49;25.61;99214.17;68295;1283;1014666;-61
2023/03/29 12:24:05;;;;;;;18.70;3.50;;;;;;;13.50;24.57;99226.02;68284;1283;1015425;-61
2023/03/29 12:27:08;;;;;;;12.60;3.20;;;;;;;13.22;23.28;99223.29;68296;1283;1015271;-61
2023/03/29 12:30:10;;;;;;;12.90;3.40;;;;;;;13.13;24.24;99215.94;68294;1282;1015820;-61
2023/03/29 12:33:13;;;;;;;13.80;3.80;;;;;;;13.41;24.83;99209.27;68287;1283;1015862;-62
2023/03/29 12:36:15;;;;;;;13.10;3.40;;;;;;;13.52;24.85;99208.88;68289;1283;1016151;-61
2023/03/29 12:39:17;;;;;;;14.50;4.00;;;;;;;13.32;23.89;99220.04;68296;1283;1015645;-61
2023/03/29 12:42:20;;;;;;;15.00;4.20;;;;;;;12.94;24.78;99214.56;68299;1283;1016012;-61
2023/03/29 12:45:22;;;;;;;;;;;;;;;13.14;26.17;99205.36;68286;1283;1015310;-61
2023/03/29 12:48:25;;;;;;;14.60;4.00;;;;;;;13.28;24.71;99211.46;68299;1283;1015524;-61
2023/03/29 12:51:27;;;;;;;;;;;;;;;13.63;26.12;99201.98;68298;1282;1014552;-61
2023/03/29 12:54:30;;;;;;;20.00;5.00;;;;;;;13.67;26.70;99199.96;68293;1283;1015723;-61
2023/03/29 12:57:32;;;;;;;18.30;5.30;;;;;;;13.83;26.64;99191.50;68286;1283;1015927;-61
2023/03/29 13:00:35;;;;;;;20.50;5.70;;;;;;;13.96;26.48;99189.36;68292;1283;1016002;-61
2023/03/29 13:03:37;;;;;;;;;;;;;;;13.94;25.15;99192.30;68299;1283;1016289;-62
2023/03/29 13:06:40;;;;;;;19.90;5.70;;;;;;;13.80;26.51;99178.14;68299;1283;1015094;-61
2023/03/29 13:09:42;;;;;;;20.30;5.90;;;;;;;13.85;26.56;99176.45;68293;1283;1016428;-61
2023/03/29 13:12:45;;;;;;;19.40;6.10;;;;;;;14.29;27.61;99169.85;68295;1283;1015937;-61
2023/03/29 13:15:47;;;;;;;17.70;5.20;;;;;;;14.83;27.21;99163.90;68293;1283;1015880;-61
2023/03/29 13:18:53;;;;;;;15.90;4.30;;;;;;;15.31;26.86;99156.12;66896;1283;6369784;-62
2023/03/29 13:21:56;;;;;;;17.20;4.40;;;;;;;15.35;24.89;99156.66;68299;1283;1015546;-61
2023/03/29 13:25:00;;;;;;;16.10;4.40;;;;;;;14.83;23.97;99161.27;68306;1283;1015437;-61
2023/03/29 13:28:02;;;;;;;16.10;4.20;;;;;;;14.52;24.45;99160.31;68292;1283;1015731;-61
2023/03/29 13:31:04;;;;;;;20.00;5.00;;;;;;;14.54;25.61;99152.43;68300;1283;1015640;-61
2023/03/29 13:34:07;;;;;;;15.20;4.20;;;;;;;15.11;25.96;99142.62;68303;1283;1015263;-61
2023/03/29 13:37:10;;;;;;;20.50;5.30;;;;;;;15.47;25.26;99140.23;68295;1283;1016624;-61
2023/03/29 13:40:12;;;;;;;20.70;5.00;;;;;;;15.27;25.56;99140.19;68314;1283;1015265;-61
2023/03/29 13:43:15;;;;;;;18.20;5.10;;;;;;;14.94;25.32;99137.73;68306;1283;1015358;-61
2023/03/29 13:46:17;;;;;;;;;;;;;;;14.91;25.03;99139.89;68300;1283;1015684;-61
2023/03/29 13:49:20;;;;;;;18.90;5.10;;;;;;;14.75;25.06;99137.33;68309;1283;1015604;-61
2023/03/29 13:52:22;;;;;;;17.40;4.60;;;;;;;14.98;25.60;99135.34;68297;1283;1015149;-61
2023/03/29 13:55:24;;;;;;;17.00;4.60;;;;;;;14.84;24.42;99133.19;68307;1283;1016249;-61
2023/03/29 13:58:28;;;;;;;;;;;;;;;14.84;25.30;99128.94;68308;1283;1015887;-61